Flight Track Log - Related Links

Times and Time Zones

All times are in EDT time to prevent confusion due to time zone crossing. See the N724AE flight status page for this flight to view local times or setup timezone preferences in your user account.

Time Position Orientation Groundspeed Altitude Reporting Facility
EDT Latitude Longitude Course Direction KTS MPH feet Rate Location/Type
Mon 10:33:32 AM 32.8500 -97.0167 57° Northeast 176 203 3,500  Level Dallas / Fort Worth TRACON
Mon 10:34:00 AM 32.7613 -96.8770 77° East  Level FlightAware Approximate
Mon 10:34:32 AM 32.7833 -97.0000 168° South 231 266 4,900  Level Dallas / Fort Worth TRACON
Mon 10:35:00 AM 32.8024 -96.7595 53° Northeast  Level FlightAware Approximate
Mon 10:35:32 AM 32.7667 -96.9167 103° East 287 330 7,000  Level Dallas / Fort Worth TRACON
Mon 10:36:00 AM 32.8696 -96.6539 52° Northeast  Level FlightAware Approximate
Mon 10:37:00 AM 32.9388 -96.5501 52° Northeast  Level FlightAware Approximate
Mon 10:37:08 AM 32.8047 -96.7758 72° East 323 372 10,000  Level Fort Worth Center
Mon 10:38:00 AM 33.0005 -96.4398 57° Northeast  Level FlightAware Approximate
Mon 10:38:08 AM 32.8583 -96.6936 52° Northeast 333 383 10,700  Level Fort Worth Center
Mon 10:39:08 AM 32.9247 -96.5844 54° Northeast 365 420 12,100 1,400 Climbing Fort Worth Center
Mon 10:40:08 AM 32.9844 -96.4897 53° Northeast 389 448 13,500 1,550 Climbing Fort Worth Center
Mon 10:41:08 AM 33.0586 -96.3750 52° Northeast 394 453 15,200 1,563 Climbing Fort Worth Center
Mon 10:42:07 AM 33.1039 -96.2728 62° Northeast 389 448 16,600 1,650 Climbing Fort Worth Center
Mon 10:43:08 AM 33.1422 -96.1333 72° East 395 455 18,500 1,587 Climbing Fort Worth Center
Mon 10:44:08 AM 33.1764 -96.0186 70° East 401 461 19,800 1,261 Climbing Fort Worth Center
Mon 10:45:07 AM 33.2186 -95.8764 70° East 409 471 21,000 1,100 Climbing Fort Worth Center
Mon 10:46:08 AM 33.2544 -95.7542 71° East 414 476 22,000 1,041 Climbing Fort Worth Center
Mon 10:47:08 AM 33.2983 -95.5967 72° East 439 505 23,100 1,000 Climbing Fort Worth Center
Mon 10:48:08 AM 33.3361 -95.4692 70° East 445 512 24,000 1,050 Climbing Fort Worth Center
Mon 10:49:08 AM 33.3756 -95.3264 72° East 450 518 25,200 1,250 Climbing Fort Worth Center
Mon 10:50:08 AM 33.4169 -95.1811 71° East 450 518 26,500 1,300 Climbing Fort Worth Center
Mon 10:51:08 AM 33.4581 -95.0406 71° East 450 518 27,800 1,350 Climbing Fort Worth Center
Mon 10:52:08 AM 33.4972 -94.9050 71° East 445 512 29,200 1,412 Climbing Fort Worth Center
Mon 10:53:07 AM 33.5383 -94.7694 70° East 440 506 30,600 1,450 Climbing Fort Worth Center
Mon 10:54:08 AM 33.5750 -94.6311 72° East 435 501 32,100 1,488 Climbing Fort Worth Center
Mon 10:55:08 AM 33.6156 -94.4928 71° East 435 501 33,600 1,462 Climbing Fort Worth Center
Mon 10:56:07 AM 33.6522 -94.3592 72° East 424 488 35,000 1,200 Climbing Fort Worth Center
Mon 10:57:08 AM 33.6925 -94.2231 70° East 424 488 36,000 942 Climbing Fort Worth Center
Mon 10:58:08 AM 33.7519 -94.0986 60° Northeast 424 488 36,900 556 Climbing Fort Worth Center
Mon 10:58:56 AM 33.8003 -93.9992 60° Northeast 428 493 37,000 56 Climbing Memphis Center
Mon 10:59:56 AM 33.8667 -93.8669 59° Northeast 445 512 37,000  Level Memphis Center
Mon 11:00:56 AM 33.9331 -93.7319 59° Northeast 451 519 37,000  Level Memphis Center
Mon 11:01:56 AM 34.0014 -93.5942 59° Northeast 464 534 37,000  Level Memphis Center
Mon 11:02:56 AM 34.0742 -93.4442 60° Northeast 464 534 37,000  Level Memphis Center
Mon 11:03:56 AM 34.1422 -93.3033 60° Northeast 474 545 37,000  Level Memphis Center
Mon 11:04:56 AM 34.2103 -93.1625 60° Northeast 479 551 37,000  Level Memphis Center
Mon 11:05:56 AM 34.2800 -93.0192 60° Northeast 479 551 37,000  Level Memphis Center
Mon 11:06:00 AM 34.2667 -93.0291 60° Northeast  Level FlightAware Approximate
Mon 11:06:56 AM 34.3369 -92.8925 61° Northeast 479 551 37,000  Level Memphis Center
Mon 11:07:56 AM 34.4044 -92.7511 60° Northeast 479 551 37,000  Level Memphis Center
Mon 11:08:56 AM 34.4803 -92.5969 59° Northeast 479 551 37,000  Level Memphis Center
Mon 11:09:56 AM 34.5475 -92.4525 61° Northeast 479 551 37,000  Level Memphis Center
Mon 11:10:56 AM 34.6144 -92.3128 60° Northeast 479 551 37,000  Level Memphis Center
Mon 11:11:56 AM 34.6875 -92.1731 58° Northeast 479 551 37,000  Level Memphis Center
Mon 11:12:56 AM 34.7767 -92.0561 47° Northeast 479 551 37,000  Level Memphis Center
Mon 11:13:56 AM 34.8658 -91.9389 47° Northeast 474 545 37,000  Level Memphis Center
Mon 11:14:56 AM 34.9592 -91.8192 46° Northeast 474 545 37,000  Level Memphis Center
Mon 11:15:56 AM 35.0522 -91.6989 47° Northeast 474 545 37,000  Level Memphis Center
Mon 11:16:56 AM 35.1453 -91.5786 47° Northeast 474 545 37,000  Level Memphis Center
Mon 11:17:56 AM 35.2383 -91.4603 46° Northeast 474 545 37,000  Level Memphis Center
Mon 11:18:56 AM 35.3311 -91.3419 46° Northeast 474 545 37,000  Level Memphis Center
Mon 11:19:56 AM 35.4236 -91.2233 46° Northeast 474 545 37,000  Level Memphis Center
Mon 11:20:56 AM 35.5161 -91.1019 47° Northeast 480 552 37,000  Level Memphis Center
Mon 11:21:56 AM 35.6067 -90.9828 47° Northeast 480 552 37,000  Level Memphis Center
Mon 11:22:56 AM 35.6967 -90.8606 48° Northeast 480 552 37,000  Level Memphis Center
Mon 11:23:56 AM 35.7911 -90.7383 46° Northeast 475 547 37,000  Level Memphis Center
Mon 11:24:56 AM 35.8789 -90.6158 48° Northeast 475 547 37,000  Level Memphis Center
Mon 11:25:56 AM 35.9731 -90.4928 47° Northeast 475 547 37,000  Level Memphis Center
Mon 11:26:56 AM 36.0647 -90.3672 48° Northeast 482 555 37,000  Level Memphis Center
Mon 11:27:56 AM 36.1606 -90.2414 47° Northeast 482 555 37,000  Level Memphis Center
Mon 11:28:56 AM 36.2522 -90.1175 47° Northeast 487 560 37,000 -150 Level Memphis Center
Mon 11:29:56 AM 36.3436 -89.9936 47° Northeast 487 560 36,700 -500 Descending Memphis Center
Mon 11:30:56 AM 36.4369 -89.8694 47° Northeast 487 560 36,000 -700 Descending Memphis Center
Mon 11:31:56 AM 36.5281 -89.7450 48° Northeast 487 560 35,300 -500 Descending Memphis Center
Mon 11:32:56 AM 36.6211 -89.6175 48° Northeast 492 566 35,000 -150 Descending Memphis Center
Mon 11:33:56 AM 36.7142 -89.4925 47° Northeast 492 566 35,000  Level Memphis Center
Mon 11:34:56 AM 36.8092 -89.3619 48° Northeast 492 566 35,000 -150 Level Memphis Center
Mon 11:35:56 AM 36.8894 -89.2467 49° Northeast 492 566 34,700 -400 Descending Memphis Center
Mon 11:36:56 AM 36.9819 -89.1181 48° Northeast 492 566 34,200 -550 Descending Memphis Center
Mon 11:37:56 AM 37.0722 -88.9919 48° Northeast 492 566 33,600 -650 Descending Memphis Center
Mon 11:38:56 AM 37.1625 -88.8656 48° Northeast 492 566 32,900 -700 Descending Memphis Center
Mon 11:39:56 AM 37.2567 -88.7333 48° Northeast 492 566 32,200 -700 Descending Memphis Center
Mon 11:40:56 AM 37.3508 -88.6036 48° Northeast 492 566 31,500 -600 Descending Memphis Center
Mon 11:41:56 AM 37.4425 -88.4708 49° Northeast 492 566 31,000 -261 Descending Memphis Center
Mon 11:42:51 AM 37.5339 -88.3328 50° Northeast 503 579 31,000  Level Indianapolis Center
Mon 11:43:52 AM 37.6247 -88.2003 49° Northeast 498 573 31,000  Level Indianapolis Center
Mon 11:44:54 AM 37.7211 -88.0622 49° Northeast 499 574 31,000  Level Indianapolis Center
Mon 11:45:56 AM 37.7811 -87.9108 63° Northeast 502 578 31,000  Level Indianapolis Center
Mon 11:46:57 AM 37.8394 -87.7489 65° Northeast 505 581 31,000 -49 Level Indianapolis Center
Mon 11:47:59 AM 37.8992 -87.5875 65° Northeast 505 581 30,900 -339 Descending Indianapolis Center
Mon 11:49:01 AM 37.9586 -87.4233 65° Northeast 510 587 30,300 -634 Descending Indianapolis Center
Mon 11:50:02 AM 38.0186 -87.2581 65° Northeast 517 595 29,600 -829 Descending Indianapolis Center
Mon 11:51:04 AM 38.0894 -87.0622 65° Northeast 513 590 28,600 -1,065 Descending Indianapolis Center
Mon 11:52:06 AM 38.1458 -86.9050 65° Northeast 501 577 27,400 -1,707 Descending Indianapolis Center
Mon 11:53:07 AM 38.1994 -86.7539 66° East 478 550 25,100 -2,341 Descending Indianapolis Center
Mon 11:54:09 AM 38.2519 -86.6081 65° Northeast 459 528 22,600 -2,274 Descending Indianapolis Center
Mon 11:55:11 AM 38.3025 -86.4658 66° East 444 511 20,400 -1,854 Descending Indianapolis Center
Mon 11:56:12 AM 38.3500 -86.3292 66° East 425 489 18,800 -1,561 Descending Indianapolis Center
Mon 11:57:14 AM 38.4061 -86.1672 66° East 417 480 17,200 -1,355 Descending Indianapolis Center
Mon 11:58:16 AM 38.4539 -86.0333 65° Northeast 415 478 16,000 -1,171 Descending Indianapolis Center
Mon 11:59:17 AM 38.4969 -85.9053 67° East 397 457 14,800 -1,171 Descending Indianapolis Center
Mon 12:00:19 PM 38.5425 -85.7717 66° East 409 471 13,600 -1,161 Descending Indianapolis Center
Mon 12:01:21 PM 38.5906 -85.6347 66° East 421 484 12,400 -1,171 Descending Indianapolis Center
Mon 12:02:22 PM 38.6500 -85.5069 59° Northeast 413 475 11,200 -683 Descending Indianapolis Center
Mon 12:03:24 PM 38.7061 -85.3808 60° Northeast 406 467 11,000 -97 Descending Indianapolis Center
Mon 12:04:26 PM 38.7606 -85.2542 61° Northeast 405 466 11,000  Level Indianapolis Center
Mon 12:05:27 PM 38.8167 -85.1231 61° Northeast 415 478 11,000 -293 Level Indianapolis Center
Mon 12:06:29 PM 38.8811 -84.9756 61° Northeast 403 464 10,400 -677 Descending Indianapolis Center
Mon 12:07:31 PM 38.9272 -84.8694 61° Northeast 340 391 9,600 -757 Descending Indianapolis Center
Mon 12:08:20 PM 38.9667 -84.7833 59° Northeast 326 375 9,000 -661 Descending Cincinnati TRACON
Mon 12:09:20 PM 39.0500 -84.7833 360° North 285 328 8,400 -900 Descending Cincinnati TRACON
Mon 12:10:20 PM 39.1333 -84.7833 360° North 252 290 7,200 -1,619 Descending Cincinnati TRACON
Mon 12:11:26 PM 39.2000 -84.7500 21° North 276 318 5,000 -1,818 Descending Cincinnati TRACON
Mon 12:12:32 PM 39.1833 -84.6667 104° East 212 244 3,200 -1,636 Descending Cincinnati TRACON

Login

Don't have an account? Register now (free) for customized features, flight alerts, and more!